sensor_id;sensor_type;location;lat;lon;timestamp;P1;durP1;ratioP1;P2;durP2;ratioP2
33270;SDS011;53180;51.344;6.152;2023-03-01T00:01:46;7.55;;;7.05;;
33270;SDS011;53180;51.344;6.152;2023-03-01T00:04:15;7.38;;;6.88;;
33270;SDS011;53180;51.344;6.152;2023-03-01T00:06:43;7.72;;;7.22;;
33270;SDS011;53180;51.344;6.152;2023-03-01T00:09:13;7.35;;;6.85;;
33270;SDS011;53180;51.344;6.152;2023-03-01T00:11:43;7.57;;;7.07;;
33270;SDS011;53180;51.344;6.152;2023-03-01T00:14:12;7.63;;;7.13;;
33270;SDS011;53180;51.344;6.152;2023-03-01T00:16:43;8.23;;;7.72;;
33270;SDS011;53180;51.344;6.152;2023-03-01T00:19:16;8.40;;;7.80;;
33270;SDS011;53180;51.344;6.152;2023-03-01T00:21:45;7.82;;;7.32;;
33270;SDS011;53180;51.344;6.152;2023-03-01T00:24:14;7.82;;;7.32;;
33270;SDS011;53180;51.344;6.152;2023-03-01T00:26:44;8.30;;;7.70;;
33270;SDS011;53180;51.344;6.152;2023-03-01T00:29:13;7.75;;;7.25;;
33270;SDS011;53180;51.344;6.152;2023-03-01T00:31:41;21.98;;;7.88;;
33270;SDS011;53180;51.344;6.152;2023-03-01T00:34:09;7.72;;;7.28;;
33270;SDS011;53180;51.344;6.152;2023-03-01T00:36:38;8.38;;;7.57;;
33270;SDS011;53180;51.344;6.152;2023-03-01T00:39:07;7.60;;;7.10;;
33270;SDS011;53180;51.344;6.152;2023-03-01T00:41:44;7.53;;;7.00;;
33270;SDS011;53180;51.344;6.152;2023-03-01T00:44:13;8.45;;;7.85;;
33270;SDS011;53180;51.344;6.152;2023-03-01T00:46:41;8.43;;;7.82;;
33270;SDS011;53180;51.344;6.152;2023-03-01T00:49:09;7.70;;;7.20;;
33270;SDS011;53180;51.344;6.152;2023-03-01T00:51:38;8.15;;;7.55;;
33270;SDS011;53180;51.344;6.152;2023-03-01T00:54:07;7.90;;;7.40;;
33270;SDS011;53180;51.344;6.152;2023-03-01T00:56:36;7.35;;;6.85;;
33270;SDS011;53180;51.344;6.152;2023-03-01T00:59:06;7.85;;;7.35;;
33270;SDS011;53180;51.344;6.152;2023-03-01T01:01:34;7.68;;;7.18;;
33270;SDS011;53180;51.344;6.152;2023-03-01T01:04:04;8.07;;;7.47;;
33270;SDS011;53180;51.344;6.152;2023-03-01T01:06:35;7.68;;;7.18;;
33270;SDS011;53180;51.344;6.152;2023-03-01T01:09:06;7.93;;;7.43;;
33270;SDS011;53180;51.344;6.152;2023-03-01T01:11:35;8.48;;;7.50;;
33270;SDS011;53180;51.344;6.152;2023-03-01T01:14:04;7.30;;;6.80;;
33270;SDS011;53180;51.344;6.152;2023-03-01T01:16:34;7.80;;;7.30;;
33270;SDS011;53180;51.344;6.152;2023-03-01T01:19:03;7.85;;;7.35;;
33270;SDS011;53180;51.344;6.152;2023-03-01T01:21:31;7.35;;;6.95;;
33270;SDS011;53180;51.344;6.152;2023-03-01T01:24:02;8.50;;;7.80;;
33270;SDS011;53180;51.344;6.152;2023-03-01T01:26:32;7.68;;;7.18;;
33270;SDS011;53180;51.344;6.152;2023-03-01T01:29:01;7.78;;;7.28;;
33270;SDS011;53180;51.344;6.152;2023-03-01T01:31:33;8.05;;;7.45;;
33270;SDS011;53180;51.344;6.152;2023-03-01T01:34:04;7.45;;;6.97;;
33270;SDS011;53180;51.344;6.152;2023-03-01T01:36:35;7.43;;;6.82;;
33270;SDS011;53180;51.344;6.152;2023-03-01T01:39:04;7.93;;;7.40;;
33270;SDS011;53180;51.344;6.152;2023-03-01T01:41:32;7.70;;;7.20;;
33270;SDS011;53180;51.344;6.152;2023-03-01T01:44:11;7.80;;;7.30;;
33270;SDS011;53180;51.344;6.152;2023-03-01T01:46:45;7.68;;;7.18;;
33270;SDS011;53180;51.344;6.152;2023-03-01T01:49:23;7.40;;;6.90;;
33270;SDS011;53180;51.344;6.152;2023-03-01T01:51:57;7.88;;;7.35;;
33270;SDS011;53180;51.344;6.152;2023-03-01T01:54:35;7.88;;;7.38;;
33270;SDS011;53180;51.344;6.152;2023-03-01T01:57:12;8.65;;;7.82;;
33270;SDS011;53180;51.344;6.152;2023-03-01T01:59:47;7.70;;;7.20;;
33270;SDS011;53180;51.344;6.152;2023-03-01T02:02:21;8.45;;;7.78;;
33270;SDS011;53180;51.344;6.152;2023-03-01T02:04:51;8.10;;;7.60;;
33270;SDS011;53180;51.344;6.152;2023-03-01T02:07:30;7.50;;;7.03;;
33270;SDS011;53180;51.344;6.152;2023-03-01T02:09:59;8.10;;;7.60;;
33270;SDS011;53180;51.344;6.152;2023-03-01T02:12:27;7.80;;;7.28;;
33270;SDS011;53180;51.344;6.152;2023-03-01T02:14:56;8.90;;;8.20;;
33270;SDS011;53180;51.344;6.152;2023-03-01T02:17:26;8.27;;;7.75;;
33270;SDS011;53180;51.344;6.152;2023-03-01T02:19:59;8.38;;;7.85;;
33270;SDS011;53180;51.344;6.152;2023-03-01T02:22:42;7.70;;;7.20;;
33270;SDS011;53180;51.344;6.152;2023-03-01T02:25:21;7.18;;;6.78;;
33270;SDS011;53180;51.344;6.152;2023-03-01T02:27:58;8.30;;;7.70;;
33270;SDS011;53180;51.344;6.152;2023-03-01T02:30:36;7.47;;;7.03;;
33270;SDS011;53180;51.344;6.152;2023-03-01T02:33:24;8.00;;;7.50;;
33270;SDS011;53180;51.344;6.152;2023-03-01T02:35:53;8.15;;;7.55;;
33270;SDS011;53180;51.344;6.152;2023-03-01T02:38:22;7.57;;;7.18;;
33270;SDS011;53180;51.344;6.152;2023-03-01T02:40:51;8.85;;;8.15;;
33270;SDS011;53180;51.344;6.152;2023-03-01T02:43:21;8.35;;;7.85;;
33270;SDS011;53180;51.344;6.152;2023-03-01T02:45:57;8.40;;;7.85;;
33270;SDS011;53180;51.344;6.152;2023-03-01T02:48:26;7.85;;;7.35;;
33270;SDS011;53180;51.344;6.152;2023-03-01T02:51:01;8.65;;;8.05;;
33270;SDS011;53180;51.344;6.152;2023-03-01T02:53:39;9.07;;;8.40;;
33270;SDS011;53180;51.344;6.152;2023-03-01T02:56:17;9.48;;;8.77;;
33270;SDS011;53180;51.344;6.152;2023-03-01T02:58:45;9.00;;;8.30;;
33270;SDS011;53180;51.344;6.152;2023-03-01T03:01:19;8.27;;;7.78;;
33270;SDS011;53180;51.344;6.152;2023-03-01T03:03:47;9.13;;;8.53;;
33270;SDS011;53180;51.344;6.152;2023-03-01T03:06:16;8.80;;;7.80;;
33270;SDS011;53180;51.344;6.152;2023-03-01T03:08:44;8.63;;;8.02;;
33270;SDS011;53180;51.344;6.152;2023-03-01T03:11:12;8.80;;;8.23;;
33270;SDS011;53180;51.344;6.152;2023-03-01T03:13:41;8.70;;;8.15;;
33270;SDS011;53180;51.344;6.152;2023-03-01T03:16:14;8.40;;;7.80;;
33270;SDS011;53180;51.344;6.152;2023-03-01T03:18:44;8.07;;;7.55;;
33270;SDS011;53180;51.344;6.152;2023-03-01T03:21:13;8.23;;;7.72;;
33270;SDS011;53180;51.344;6.152;2023-03-01T03:23:42;8.90;;;8.30;;
33270;SDS011;53180;51.344;6.152;2023-03-01T03:26:11;8.15;;;7.65;;
33270;SDS011;53180;51.344;6.152;2023-03-01T03:28:41;8.73;;;8.13;;
33270;SDS011;53180;51.344;6.152;2023-03-01T03:31:09;8.45;;;7.85;;
33270;SDS011;53180;51.344;6.152;2023-03-01T03:33:38;8.13;;;7.63;;
33270;SDS011;53180;51.344;6.152;2023-03-01T03:36:08;8.73;;;8.10;;
33270;SDS011;53180;51.344;6.152;2023-03-01T03:38:39;8.50;;;7.90;;
33270;SDS011;53180;51.344;6.152;2023-03-01T03:41:07;8.00;;;7.50;;
33270;SDS011;53180;51.344;6.152;2023-03-01T03:43:36;8.57;;;7.97;;
33270;SDS011;53180;51.344;6.152;2023-03-01T03:46:09;8.48;;;7.88;;
33270;SDS011;53180;51.344;6.152;2023-03-01T03:48:39;8.88;;;8.25;;
33270;SDS011;53180;51.344;6.152;2023-03-01T03:51:11;8.88;;;8.27;;
33270;SDS011;53180;51.344;6.152;2023-03-01T03:53:41;9.05;;;8.40;;
33270;SDS011;53180;51.344;6.152;2023-03-01T03:56:10;8.88;;;8.20;;
33270;SDS011;53180;51.344;6.152;2023-03-01T03:58:39;9.02;;;8.43;;
33270;SDS011;53180;51.344;6.152;2023-03-01T04:01:07;9.10;;;8.40;;
33270;SDS011;53180;51.344;6.152;2023-03-01T04:03:36;8.20;;;7.70;;
33270;SDS011;53180;51.344;6.152;2023-03-01T04:06:04;8.65;;;7.93;;
33270;SDS011;53180;51.344;6.152;2023-03-01T04:08:34;8.55;;;7.90;;
33270;SDS011;53180;51.344;6.152;2023-03-01T04:11:03;8.75;;;8.20;;
33270;SDS011;53180;51.344;6.152;2023-03-01T04:13:46;9.07;;;8.38;;
33270;SDS011;53180;51.344;6.152;2023-03-01T04:16:15;8.30;;;7.80;;
33270;SDS011;53180;51.344;6.152;2023-03-01T04:18:44;8.52;;;7.93;;
33270;SDS011;53180;51.344;6.152;2023-03-01T04:21:12;9.55;;;8.85;;
33270;SDS011;53180;51.344;6.152;2023-03-01T04:23:42;8.60;;;8.00;;
33270;SDS011;53180;51.344;6.152;2023-03-01T04:26:11;8.75;;;8.15;;
33270;SDS011;53180;51.344;6.152;2023-03-01T04:28:39;8.48;;;7.78;;
33270;SDS011;53180;51.344;6.152;2023-03-01T04:31:12;9.07;;;8.48;;
33270;SDS011;53180;51.344;6.152;2023-03-01T04:33:45;9.20;;;8.38;;
33270;SDS011;53180;51.344;6.152;2023-03-01T04:36:15;8.68;;;8.00;;
33270;SDS011;53180;51.344;6.152;2023-03-01T04:38:46;9.70;;;8.73;;
33270;SDS011;53180;51.344;6.152;2023-03-01T04:41:15;8.57;;;7.97;;
33270;SDS011;53180;51.344;6.152;2023-03-01T04:43:46;8.45;;;7.82;;
33270;SDS011;53180;51.344;6.152;2023-03-01T04:46:16;8.40;;;7.80;;
33270;SDS011;53180;51.344;6.152;2023-03-01T04:48:47;8.65;;;8.05;;
33270;SDS011;53180;51.344;6.152;2023-03-01T04:51:16;14.82;;;8.07;;
33270;SDS011;53180;51.344;6.152;2023-03-01T04:53:46;9.55;;;8.85;;
33270;SDS011;53180;51.344;6.152;2023-03-01T04:56:15;8.68;;;8.00;;
33270;SDS011;53180;51.344;6.152;2023-03-01T04:58:44;8.73;;;8.13;;
33270;SDS011;53180;51.344;6.152;2023-03-01T05:01:14;8.60;;;7.90;;
33270;SDS011;53180;51.344;6.152;2023-03-01T05:03:46;8.60;;;8.00;;
33270;SDS011;53180;51.344;6.152;2023-03-01T05:06:17;8.60;;;7.97;;
33270;SDS011;53180;51.344;6.152;2023-03-01T05:08:48;8.60;;;8.00;;
33270;SDS011;53180;51.344;6.152;2023-03-01T05:11:16;8.55;;;7.95;;
33270;SDS011;53180;51.344;6.152;2023-03-01T05:13:44;8.95;;;8.30;;
33270;SDS011;53180;51.344;6.152;2023-03-01T05:16:13;9.05;;;8.35;;
33270;SDS011;53180;51.344;6.152;2023-03-01T05:18:41;8.27;;;7.78;;
33270;SDS011;53180;51.344;6.152;2023-03-01T05:21:10;8.30;;;7.80;;
33270;SDS011;53180;51.344;6.152;2023-03-01T05:23:43;12.43;;;8.35;;
33270;SDS011;53180;51.344;6.152;2023-03-01T05:26:14;9.82;;;9.13;;
33270;SDS011;53180;51.344;6.152;2023-03-01T05:28:54;8.65;;;8.07;;
33270;SDS011;53180;51.344;6.152;2023-03-01T05:31:25;8.93;;;8.32;;
33270;SDS011;53180;51.344;6.152;2023-03-01T05:33:54;8.32;;;7.82;;
33270;SDS011;53180;51.344;6.152;2023-03-01T05:36:22;8.80;;;8.20;;
33270;SDS011;53180;51.344;6.152;2023-03-01T05:38:50;8.77;;;8.18;;
33270;SDS011;53180;51.344;6.152;2023-03-01T05:41:20;8.98;;;8.30;;
33270;SDS011;53180;51.344;6.152;2023-03-01T05:43:48;8.32;;;7.82;;
33270;SDS011;53180;51.344;6.152;2023-03-01T05:46:17;9.20;;;8.50;;
33270;SDS011;53180;51.344;6.152;2023-03-01T05:48:45;8.63;;;7.70;;
33270;SDS011;53180;51.344;6.152;2023-03-01T05:51:14;8.25;;;7.65;;
33270;SDS011;53180;51.344;6.152;2023-03-01T05:53:43;8.68;;;8.07;;
33270;SDS011;53180;51.344;6.152;2023-03-01T05:56:12;9.93;;;9.00;;
33270;SDS011;53180;51.344;6.152;2023-03-01T05:58:41;9.88;;;9.07;;
33270;SDS011;53180;51.344;6.152;2023-03-01T06:01:11;8.32;;;7.60;;
33270;SDS011;53180;51.344;6.152;2023-03-01T06:03:40;9.60;;;8.63;;
33270;SDS011;53180;51.344;6.152;2023-03-01T06:06:08;9.07;;;8.38;;
33270;SDS011;53180;51.344;6.152;2023-03-01T06:08:37;9.70;;;8.93;;
33270;SDS011;53180;51.344;6.152;2023-03-01T06:11:05;8.93;;;8.32;;
33270;SDS011;53180;51.344;6.152;2023-03-01T06:13:33;9.38;;;8.60;;
33270;SDS011;53180;51.344;6.152;2023-03-01T06:16:05;8.52;;;8.00;;
33270;SDS011;53180;51.344;6.152;2023-03-01T06:18:35;8.60;;;8.00;;
33270;SDS011;53180;51.344;6.152;2023-03-01T06:21:03;8.70;;;8.07;;
33270;SDS011;53180;51.344;6.152;2023-03-01T06:23:33;8.80;;;8.20;;
33270;SDS011;53180;51.344;6.152;2023-03-01T06:26:04;8.40;;;7.85;;
33270;SDS011;53180;51.344;6.152;2023-03-01T06:28:34;9.70;;;9.00;;
33270;SDS011;53180;51.344;6.152;2023-03-01T06:31:04;8.93;;;8.38;;
33270;SDS011;53180;51.344;6.152;2023-03-01T06:33:35;9.48;;;8.88;;
33270;SDS011;53180;51.344;6.152;2023-03-01T06:36:03;8.50;;;7.95;;
33270;SDS011;53180;51.344;6.152;2023-03-01T06:38:33;8.60;;;8.00;;
33270;SDS011;53180;51.344;6.152;2023-03-01T06:41:01;8.73;;;8.10;;
33270;SDS011;53180;51.344;6.152;2023-03-01T06:43:30;9.02;;;8.43;;
33270;SDS011;53180;51.344;6.152;2023-03-01T06:45:58;10.25;;;9.40;;
33270;SDS011;53180;51.344;6.152;2023-03-01T06:48:28;8.38;;;7.88;;
33270;SDS011;53180;51.344;6.152;2023-03-01T06:50:57;8.65;;;8.13;;
33270;SDS011;53180;51.344;6.152;2023-03-01T06:53:26;10.80;;;10.00;;
33270;SDS011;53180;51.344;6.152;2023-03-01T06:55:55;9.43;;;8.73;;
33270;SDS011;53180;51.344;6.152;2023-03-01T06:58:25;9.55;;;8.75;;
33270;SDS011;53180;51.344;6.152;2023-03-01T07:00:54;9.50;;;8.63;;
33270;SDS011;53180;51.344;6.152;2023-03-01T07:03:22;9.25;;;8.45;;
33270;SDS011;53180;51.344;6.152;2023-03-01T07:05:52;8.77;;;8.18;;
33270;SDS011;53180;51.344;6.152;2023-03-01T07:08:20;8.73;;;8.05;;
33270;SDS011;53180;51.344;6.152;2023-03-01T07:10:54;8.55;;;7.95;;
33270;SDS011;53180;51.344;6.152;2023-03-01T07:13:23;8.70;;;8.10;;
33270;SDS011;53180;51.344;6.152;2023-03-01T07:15:51;8.93;;;8.23;;
33270;SDS011;53180;51.344;6.152;2023-03-01T07:18:20;8.88;;;8.27;;
33270;SDS011;53180;51.344;6.152;2023-03-01T07:20:48;8.52;;;7.82;;
33270;SDS011;53180;51.344;6.152;2023-03-01T07:23:18;9.25;;;8.52;;
33270;SDS011;53180;51.344;6.152;2023-03-01T07:25:51;8.07;;;7.57;;
33270;SDS011;53180;51.344;6.152;2023-03-01T07:28:20;9.43;;;8.63;;
33270;SDS011;53180;51.344;6.152;2023-03-01T07:30:50;8.93;;;8.23;;
33270;SDS011;53180;51.344;6.152;2023-03-01T07:33:19;8.90;;;8.10;;
33270;SDS011;53180;51.344;6.152;2023-03-01T07:35:48;8.52;;;7.93;;
33270;SDS011;53180;51.344;6.152;2023-03-01T07:38:16;9.85;;;9.00;;
33270;SDS011;53180;51.344;6.152;2023-03-01T07:40:45;9.05;;;8.27;;
33270;SDS011;53180;51.344;6.152;2023-03-01T07:43:14;8.65;;;7.90;;
33270;SDS011;53180;51.344;6.152;2023-03-01T07:45:42;10.57;;;8.20;;
33270;SDS011;53180;51.344;6.152;2023-03-01T07:48:11;9.30;;;7.95;;
33270;SDS011;53180;51.344;6.152;2023-03-01T07:50:39;8.80;;;8.10;;
33270;SDS011;53180;51.344;6.152;2023-03-01T07:53:08;9.02;;;8.25;;
33270;SDS011;53180;51.344;6.152;2023-03-01T07:55:37;7.35;;;6.85;;
33270;SDS011;53180;51.344;6.152;2023-03-01T07:58:06;7.90;;;7.35;;
33270;SDS011;53180;51.344;6.152;2023-03-01T08:00:35;11.77;;;9.52;;
33270;SDS011;53180;51.344;6.152;2023-03-01T08:03:03;9.20;;;8.10;;
33270;SDS011;53180;51.344;6.152;2023-03-01T08:05:31;7.97;;;7.45;;
33270;SDS011;53180;51.344;6.152;2023-03-01T08:08:00;7.78;;;7.25;;
33270;SDS011;53180;51.344;6.152;2023-03-01T08:10:28;7.63;;;7.03;;
33270;SDS011;53180;51.344;6.152;2023-03-01T08:12:56;7.40;;;6.88;;
33270;SDS011;53180;51.344;6.152;2023-03-01T08:15:26;7.60;;;6.90;;
33270;SDS011;53180;51.344;6.152;2023-03-01T08:17:54;7.15;;;6.65;;
33270;SDS011;53180;51.344;6.152;2023-03-01T08:20:23;7.88;;;7.07;;
33270;SDS011;53180;51.344;6.152;2023-03-01T08:22:51;6.45;;;6.03;;
33270;SDS011;53180;51.344;6.152;2023-03-01T08:25:19;6.43;;;5.93;;
33270;SDS011;53180;51.344;6.152;2023-03-01T08:27:48;6.70;;;6.20;;
33270;SDS011;53180;51.344;6.152;2023-03-01T08:30:16;7.38;;;6.78;;
33270;SDS011;53180;51.344;6.152;2023-03-01T08:32:46;6.78;;;6.28;;
33270;SDS011;53180;51.344;6.152;2023-03-01T08:35:15;7.53;;;6.28;;
33270;SDS011;53180;51.344;6.152;2023-03-01T08:37:43;7.07;;;6.38;;
33270;SDS011;53180;51.344;6.152;2023-03-01T08:40:12;6.30;;;5.80;;
33270;SDS011;53180;51.344;6.152;2023-03-01T08:42:41;6.22;;;5.63;;
33270;SDS011;53180;51.344;6.152;2023-03-01T08:45:10;6.38;;;5.78;;
33270;SDS011;53180;51.344;6.152;2023-03-01T08:47:40;6.38;;;5.78;;
33270;SDS011;53180;51.344;6.152;2023-03-01T08:50:10;5.90;;;5.40;;
33270;SDS011;53180;51.344;6.152;2023-03-01T08:52:38;8.70;;;5.23;;
33270;SDS011;53180;51.344;6.152;2023-03-01T08:55:07;6.50;;;5.90;;
33270;SDS011;53180;51.344;6.152;2023-03-01T08:57:36;5.82;;;5.32;;
33270;SDS011;53180;51.344;6.152;2023-03-01T09:00:05;6.55;;;5.60;;
33270;SDS011;53180;51.344;6.152;2023-03-01T09:02:35;5.65;;;5.22;;
33270;SDS011;53180;51.344;6.152;2023-03-01T09:05:05;5.70;;;5.20;;
33270;SDS011;53180;51.344;6.152;2023-03-01T09:07:35;5.60;;;5.07;;
33270;SDS011;53180;51.344;6.152;2023-03-01T09:10:04;7.47;;;5.60;;
33270;SDS011;53180;51.344;6.152;2023-03-01T09:12:33;5.20;;;4.70;;
33270;SDS011;53180;51.344;6.152;2023-03-01T09:15:01;5.18;;;4.78;;
33270;SDS011;53180;51.344;6.152;2023-03-01T09:17:30;5.95;;;5.45;;
33270;SDS011;53180;51.344;6.152;2023-03-01T09:19:59;5.15;;;4.70;;
33270;SDS011;53180;51.344;6.152;2023-03-01T09:22:27;5.75;;;5.25;;
33270;SDS011;53180;51.344;6.152;2023-03-01T09:24:57;5.95;;;5.43;;
33270;SDS011;53180;51.344;6.152;2023-03-01T09:27:25;7.07;;;5.60;;
33270;SDS011;53180;51.344;6.152;2023-03-01T09:29:53;5.55;;;4.90;;
33270;SDS011;53180;51.344;6.152;2023-03-01T09:32:22;6.40;;;5.70;;
33270;SDS011;53180;51.344;6.152;2023-03-01T09:34:50;5.32;;;4.82;;
33270;SDS011;53180;51.344;6.152;2023-03-01T09:37:31;8.43;;;4.75;;
33270;SDS011;53180;51.344;6.152;2023-03-01T09:40:02;5.90;;;5.10;;
33270;SDS011;53180;51.344;6.152;2023-03-01T09:42:34;5.43;;;4.93;;
33270;SDS011;53180;51.344;6.152;2023-03-01T09:45:03;6.63;;;5.28;;
33270;SDS011;53180;51.344;6.152;2023-03-01T09:47:33;9.23;;;5.80;;
33270;SDS011;53180;51.344;6.152;2023-03-01T09:50:04;8.95;;;4.95;;
33270;SDS011;53180;51.344;6.152;2023-03-01T09:52:39;6.07;;;5.25;;
33270;SDS011;53180;51.344;6.152;2023-03-01T09:55:12;6.85;;;5.70;;
33270;SDS011;53180;51.344;6.152;2023-03-01T09:57:44;6.18;;;5.57;;
33270;SDS011;53180;51.344;6.152;2023-03-01T10:00:26;7.85;;;5.50;;
33270;SDS011;53180;51.344;6.152;2023-03-01T10:03:06;7.28;;;5.00;;
33270;SDS011;53180;51.344;6.152;2023-03-01T10:05:51;8.20;;;5.53;;
33270;SDS011;53180;51.344;6.152;2023-03-01T10:08:30;6.80;;;5.60;;
33270;SDS011;53180;51.344;6.152;2023-03-01T10:11:19;6.50;;;5.90;;
33270;SDS011;53180;51.344;6.152;2023-03-01T10:13:52;6.93;;;5.18;;
33270;SDS011;53180;51.344;6.152;2023-03-01T10:16:27;5.80;;;5.10;;
33270;SDS011;53180;51.344;6.152;2023-03-01T10:19:04;7.28;;;5.80;;
33270;SDS011;53180;51.344;6.152;2023-03-01T10:21:41;10.70;;;5.03;;
33270;SDS011;53180;51.344;6.152;2023-03-01T10:24:13;6.53;;;4.90;;
33270;SDS011;53180;51.344;6.152;2023-03-01T10:26:48;5.18;;;4.68;;
33270;SDS011;53180;51.344;6.152;2023-03-01T10:29:23;6.57;;;5.32;;
33270;SDS011;53180;51.344;6.152;2023-03-01T10:31:58;6.78;;;5.38;;
33270;SDS011;53180;51.344;6.152;2023-03-01T10:34:27;9.27;;;5.55;;
33270;SDS011;53180;51.344;6.152;2023-03-01T10:37:01;5.90;;;5.30;;
33270;SDS011;53180;51.344;6.152;2023-03-01T10:39:54;7.97;;;5.00;;
33270;SDS011;53180;51.344;6.152;2023-03-01T10:42:27;5.80;;;4.88;;
33270;SDS011;53180;51.344;6.152;2023-03-01T10:44:58;10.93;;;4.88;;
33270;SDS011;53180;51.344;6.152;2023-03-01T10:47:43;8.57;;;5.32;;
33270;SDS011;53180;51.344;6.152;2023-03-01T10:50:18;6.72;;;4.55;;
33270;SDS011;53180;51.344;6.152;2023-03-01T10:52:55;6.43;;;4.55;;
33270;SDS011;53180;51.344;6.152;2023-03-01T10:55:27;6.50;;;5.00;;
33270;SDS011;53180;51.344;6.152;2023-03-01T10:58:16;5.35;;;4.80;;
33270;SDS011;53180;51.344;6.152;2023-03-01T11:00:48;5.20;;;4.65;;
33270;SDS011;53180;51.344;6.152;2023-03-01T11:03:20;8.27;;;4.47;;
33270;SDS011;53180;51.344;6.152;2023-03-01T11:05:56;5.85;;;4.97;;
33270;SDS011;53180;51.344;6.152;2023-03-01T11:08:35;6.72;;;5.07;;
33270;SDS011;53180;51.344;6.152;2023-03-01T11:11:23;6.30;;;4.78;;
33270;SDS011;53180;51.344;6.152;2023-03-01T11:14:01;4.68;;;4.28;;
33270;SDS011;53180;51.344;6.152;2023-03-01T11:16:57;6.28;;;4.72;;
33270;SDS011;53180;51.344;6.152;2023-03-01T11:19:28;5.07;;;4.45;;
33270;SDS011;53180;51.344;6.152;2023-03-01T11:21:58;4.93;;;4.43;;
33270;SDS011;53180;51.344;6.152;2023-03-01T11:24:33;7.88;;;4.35;;
33270;SDS011;53180;51.344;6.152;2023-03-01T11:27:13;6.53;;;4.72;;
33270;SDS011;53180;51.344;6.152;2023-03-01T11:29:50;6.13;;;4.60;;
33270;SDS011;53180;51.344;6.152;2023-03-01T11:32:25;7.15;;;4.70;;
33270;SDS011;53180;51.344;6.152;2023-03-01T11:34:59;5.85;;;4.45;;
33270;SDS011;53180;51.344;6.152;2023-03-01T11:37:33;5.43;;;4.20;;
33270;SDS011;53180;51.344;6.152;2023-03-01T11:40:11;10.43;;;4.68;;
33270;SDS011;53180;51.344;6.152;2023-03-01T11:42:55;5.30;;;4.38;;
33270;SDS011;53180;51.344;6.152;2023-03-01T11:45:36;5.78;;;4.13;;
33270;SDS011;53180;51.344;6.152;2023-03-01T11:48:24;6.68;;;4.13;;
33270;SDS011;53180;51.344;6.152;2023-03-01T11:51:17;4.80;;;3.75;;
33270;SDS011;53180;51.344;6.152;2023-03-01T11:54:06;5.13;;;4.13;;
33270;SDS011;53180;51.344;6.152;2023-03-01T11:56:48;3.72;;;3.40;;
33270;SDS011;53180;51.344;6.152;2023-03-01T12:02:56;6.18;;;3.95;;
33270;SDS011;53180;51.344;6.152;2023-03-01T12:05:50;4.60;;;4.07;;
33270;SDS011;53180;51.344;6.152;2023-03-01T12:08:34;4.65;;;4.00;;
33270;SDS011;53180;51.344;6.152;2023-03-01T12:11:11;8.38;;;4.10;;
33270;SDS011;53180;51.344;6.152;2023-03-01T12:17:06;5.03;;;3.95;;
33270;SDS011;53180;51.344;6.152;2023-03-01T12:20:02;5.03;;;4.13;;
33270;SDS011;53180;51.344;6.152;2023-03-01T12:22:44;5.53;;;4.05;;
33270;SDS011;53180;51.344;6.152;2023-03-01T12:25:46;6.50;;;4.03;;
33270;SDS011;53180;51.344;6.152;2023-03-01T12:28:36;4.05;;;3.60;;
33270;SDS011;53180;51.344;6.152;2023-03-01T12:31:41;9.52;;;3.83;;
33270;SDS011;53180;51.344;6.152;2023-03-01T12:34:31;7.35;;;4.13;;
33270;SDS011;53180;51.344;6.152;2023-03-01T12:37:33;5.75;;;4.18;;
33270;SDS011;53180;51.344;6.152;2023-03-01T12:40:16;4.55;;;4.15;;
33270;SDS011;53180;51.344;6.152;2023-03-01T12:43:08;5.20;;;4.25;;
33270;SDS011;53180;51.344;6.152;2023-03-01T12:45:50;5.03;;;4.28;;
33270;SDS011;53180;51.344;6.152;2023-03-01T12:48:37;4.65;;;4.10;;
33270;SDS011;53180;51.344;6.152;2023-03-01T12:51:18;7.60;;;4.03;;
33270;SDS011;53180;51.344;6.152;2023-03-01T12:53:52;6.20;;;5.30;;
33270;SDS011;53180;51.344;6.152;2023-03-01T12:56:24;4.53;;;4.13;;
33270;SDS011;53180;51.344;6.152;2023-03-01T12:58:58;5.57;;;4.15;;
33270;SDS011;53180;51.344;6.152;2023-03-01T13:01:35;4.85;;;4.35;;
33270;SDS011;53180;51.344;6.152;2023-03-01T13:07:29;4.45;;;4.07;;
33270;SDS011;53180;51.344;6.152;2023-03-01T13:10:06;4.65;;;4.22;;
33270;SDS011;53180;51.344;6.152;2023-03-01T13:12:53;4.88;;;4.38;;
33270;SDS011;53180;51.344;6.152;2023-03-01T13:15:36;4.40;;;3.97;;
33270;SDS011;53180;51.344;6.152;2023-03-01T13:21:02;4.40;;;4.00;;
33270;SDS011;53180;51.344;6.152;2023-03-01T13:23:34;4.72;;;4.32;;
33270;SDS011;53180;51.344;6.152;2023-03-01T13:26:12;4.28;;;3.83;;
33270;SDS011;53180;51.344;6.152;2023-03-01T13:34:47;5.97;;;4.57;;
33270;SDS011;53180;51.344;6.152;2023-03-01T13:37:23;3.97;;;3.40;;
33270;SDS011;53180;51.344;6.152;2023-03-01T13:43:27;4.90;;;3.88;;
33270;SDS011;53180;51.344;6.152;2023-03-01T13:46:00;6.93;;;4.32;;
33270;SDS011;53180;51.344;6.152;2023-03-01T13:48:36;4.63;;;4.15;;
33270;SDS011;53180;51.344;6.152;2023-03-01T13:51:07;4.43;;;4.03;;
33270;SDS011;53180;51.344;6.152;2023-03-01T13:53:39;7.75;;;4.13;;
33270;SDS011;53180;51.344;6.152;2023-03-01T13:56:13;4.63;;;3.80;;
33270;SDS011;53180;51.344;6.152;2023-03-01T13:58:47;4.57;;;4.18;;
33270;SDS011;53180;51.344;6.152;2023-03-01T14:01:22;5.78;;;4.50;;
33270;SDS011;53180;51.344;6.152;2023-03-01T14:03:57;4.40;;;4.00;;
33270;SDS011;53180;51.344;6.152;2023-03-01T14:06:27;6.00;;;4.20;;
33270;SDS011;53180;51.344;6.152;2023-03-01T14:09:03;4.88;;;4.38;;
33270;SDS011;53180;51.344;6.152;2023-03-01T14:11:53;4.82;;;4.28;;
33270;SDS011;53180;51.344;6.152;2023-03-01T14:14:55;4.70;;;4.20;;
33270;SDS011;53180;51.344;6.152;2023-03-01T14:20:32;3.95;;;3.65;;
33270;SDS011;53180;51.344;6.152;2023-03-01T14:23:09;5.00;;;3.60;;
33270;SDS011;53180;51.344;6.152;2023-03-01T14:25:45;4.55;;;4.15;;
33270;SDS011;53180;51.344;6.152;2023-03-01T14:28:17;6.53;;;3.88;;
33270;SDS011;53180;51.344;6.152;2023-03-01T14:30:49;4.05;;;3.65;;
33270;SDS011;53180;51.344;6.152;2023-03-01T14:33:21;6.05;;;4.53;;
33270;SDS011;53180;51.344;6.152;2023-03-01T14:35:52;7.00;;;4.40;;
33270;SDS011;53180;51.344;6.152;2023-03-01T14:38:28;6.20;;;4.80;;
33270;SDS011;53180;51.344;6.152;2023-03-01T14:41:02;5.05;;;4.30;;
33270;SDS011;53180;51.344;6.152;2023-03-01T14:43:37;4.70;;;4.15;;
33270;SDS011;53180;51.344;6.152;2023-03-01T14:46:16;5.30;;;4.07;;
33270;SDS011;53180;51.344;6.152;2023-03-01T14:48:48;5.00;;;4.28;;
33270;SDS011;53180;51.344;6.152;2023-03-01T14:51:18;11.15;;;4.30;;
33270;SDS011;53180;51.344;6.152;2023-03-01T14:53:46;10.38;;;4.18;;
33270;SDS011;53180;51.344;6.152;2023-03-01T14:56:17;5.03;;;4.38;;
33270;SDS011;53180;51.344;6.152;2023-03-01T14:58:52;7.93;;;4.90;;
33270;SDS011;53180;51.344;6.152;2023-03-01T15:01:21;6.18;;;4.63;;
33270;SDS011;53180;51.344;6.152;2023-03-01T15:03:50;6.22;;;4.30;;
33270;SDS011;53180;51.344;6.152;2023-03-01T15:06:19;4.85;;;4.35;;
33270;SDS011;53180;51.344;6.152;2023-03-01T15:11:20;15.55;;;5.07;;
33270;SDS011;53180;51.344;6.152;2023-03-01T15:13:52;5.30;;;4.32;;
33270;SDS011;53180;51.344;6.152;2023-03-01T15:16:21;5.43;;;4.10;;
33270;SDS011;53180;51.344;6.152;2023-03-01T15:18:53;5.47;;;4.43;;
33270;SDS011;53180;51.344;6.152;2023-03-01T15:21:24;4.75;;;3.90;;
33270;SDS011;53180;51.344;6.152;2023-03-01T15:23:55;4.47;;;4.07;;
33270;SDS011;53180;51.344;6.152;2023-03-01T15:26:30;6.70;;;4.28;;
33270;SDS011;53180;51.344;6.152;2023-03-01T15:29:05;5.00;;;4.50;;
33270;SDS011;53180;51.344;6.152;2023-03-01T15:31:53;6.68;;;4.53;;
33270;SDS011;53180;51.344;6.152;2023-03-01T15:34:24;5.90;;;4.68;;
33270;SDS011;53180;51.344;6.152;2023-03-01T15:36:55;5.25;;;4.75;;
33270;SDS011;53180;51.344;6.152;2023-03-01T15:39:34;6.28;;;4.35;;
33270;SDS011;53180;51.344;6.152;2023-03-01T15:42:06;5.13;;;4.63;;
33270;SDS011;53180;51.344;6.152;2023-03-01T15:44:39;6.18;;;5.57;;
33270;SDS011;53180;51.344;6.152;2023-03-01T15:47:28;5.28;;;4.75;;
33270;SDS011;53180;51.344;6.152;2023-03-01T15:49:58;5.10;;;4.60;;